createdAt,value
2019-04-03T00:01:22.752Z,13.80
2019-04-03T00:03:49.937Z,14.13
2019-04-03T00:06:17.320Z,14.95
2019-04-03T00:08:44.568Z,13.78
2019-04-03T00:11:12.237Z,14.30
2019-04-03T00:13:41.258Z,13.48
2019-04-03T00:16:08.557Z,13.40
2019-04-03T00:18:37.423Z,13.83
2019-04-03T00:21:04.715Z,12.73
2019-04-03T00:23:31.951Z,14.90
2019-04-03T00:25:59.158Z,12.60
2019-04-03T00:28:26.376Z,13.28
2019-04-03T00:30:53.644Z,14.13
2019-04-03T00:33:23.074Z,13.95
2019-04-03T00:35:49.854Z,14.30
2019-04-03T00:38:17.271Z,14.03
2019-04-03T00:40:44.502Z,15.48
2019-04-03T00:43:11.829Z,15.58
2019-04-03T00:45:39.248Z,14.60
2019-04-03T00:48:06.581Z,14.83
2019-04-03T00:50:33.896Z,13.62
2019-04-03T00:53:01.450Z,15.63
2019-04-03T00:55:28.641Z,15.13
2019-04-03T00:57:56.529Z,16.07
2019-04-03T01:00:25.976Z,15.70
2019-04-03T01:02:53.038Z,16.12
2019-04-03T01:05:20.248Z,16.85
2019-04-03T01:07:48.741Z,16.93
2019-04-03T01:10:16.052Z,16.65
2019-04-03T01:12:43.323Z,17.45
2019-04-03T01:15:10.545Z,17.12
2019-04-03T01:17:37.748Z,16.50
2019-04-03T01:20:06.329Z,18.75
2019-04-03T01:22:35.592Z,18.27
2019-04-03T01:25:03.833Z,18.87
2019-04-03T01:27:31.034Z,18.50
2019-04-03T01:29:59.930Z,17.32
2019-04-03T01:32:27.320Z,17.77
2019-04-03T01:34:54.650Z,11.12
2019-04-03T01:37:22.160Z,11.65
2019-04-03T01:39:50.892Z,8.93
2019-04-03T01:42:21.091Z,7.58
2019-04-03T01:44:47.423Z,6.90
2019-04-03T01:47:14.655Z,5.70
2019-04-03T01:49:44.786Z,5.55
2019-04-03T01:52:12.053Z,5.97
2019-04-03T01:54:39.234Z,5.97
2019-04-03T01:57:06.998Z,7.95
2019-04-03T01:59:37.082Z,7.42
2019-04-03T02:02:03.532Z,8.23
2019-04-03T02:04:30.748Z,7.45
2019-04-03T02:06:57.966Z,9.70
2019-04-03T02:09:25.164Z,7.70
2019-04-03T02:11:52.412Z,8.20
2019-04-03T02:14:21.584Z,9.00
2019-04-03T02:16:48.660Z,9.18
2019-04-03T02:19:16.062Z,9.50
2019-04-03T02:21:43.446Z,12.47
2019-04-03T02:24:13.657Z,10.72
2019-04-03T02:26:40.935Z,10.25
2019-04-03T02:29:08.690Z,10.58
2019-04-03T02:31:36.800Z,9.03
2019-04-03T02:34:04.070Z,9.38
2019-04-03T02:36:31.403Z,9.48
2019-04-03T02:38:58.671Z,8.80
2019-04-03T02:41:25.851Z,9.98
2019-04-03T02:43:53.212Z,7.80
2019-04-03T02:46:20.451Z,8.27
2019-04-03T02:48:49.229Z,7.92
2019-04-03T02:51:18.921Z,8.15
2019-04-03T02:53:45.571Z,8.80
2019-04-03T02:56:13.824Z,9.25
2019-04-03T02:58:41.350Z,11.55
2019-04-03T03:01:08.647Z,9.80
2019-04-03T03:03:36.017Z,10.30
2019-04-03T03:06:03.327Z,12.58
2019-04-03T03:08:30.524Z,10.45
2019-04-03T03:10:57.793Z,11.97
2019-04-03T03:13:25.184Z,12.13
2019-04-03T03:15:52.571Z,10.05
2019-04-03T03:18:19.819Z,10.15
2019-04-03T03:20:47.192Z,9.85
2019-04-03T03:23:14.482Z,11.53
2019-04-03T03:25:42.116Z,10.50
2019-04-03T03:28:13.197Z,10.10
2019-04-03T03:30:46.000Z,9.90
2019-04-03T03:33:28.851Z,14.35
2019-04-03T03:35:42.059Z,11.33
2019-04-03T03:38:07.038Z,11.83
2019-04-03T03:40:34.605Z,11.00
2019-04-03T03:43:05.043Z,12.20
2019-04-03T03:45:30.930Z,14.00
2019-04-03T03:47:58.272Z,11.43
2019-04-03T03:50:26.751Z,13.70
2019-04-03T03:52:56.208Z,13.85
2019-04-03T03:55:25.463Z,11.90
2019-04-03T03:57:53.482Z,13.05
2019-04-03T04:00:23.195Z,14.50
2019-04-03T04:02:49.808Z,15.15
2019-04-03T04:05:19.760Z,14.18
2019-04-03T04:07:46.099Z,16.12
2019-04-03T04:10:13.297Z,13.78
2019-04-03T04:12:41.834Z,15.67
2019-04-03T04:15:09.748Z,16.33
2019-04-03T04:17:37.127Z,13.68
2019-04-03T04:20:06.099Z,14.78
2019-04-03T04:22:33.866Z,15.38
2019-04-03T04:25:02.839Z,16.42
2019-04-03T04:27:33.093Z,14.93
2019-04-03T04:29:59.009Z,14.90
2019-04-03T04:32:26.297Z,14.83
2019-04-03T04:34:53.616Z,14.77
2019-04-03T04:37:20.816Z,17.52
2019-04-03T04:39:48.239Z,21.70
2019-04-03T04:42:15.561Z,18.10
2019-04-03T04:44:42.809Z,21.15
2019-04-03T04:47:11.505Z,17.77
2019-04-03T04:49:40.273Z,17.50
2019-04-03T04:52:08.134Z,18.90
2019-04-03T04:54:35.464Z,18.90
2019-04-03T04:57:03.100Z,20.10
2019-04-03T04:59:30.345Z,17.55
2019-04-03T05:01:57.638Z,18.20
2019-04-03T05:04:25.615Z,21.55
2019-04-03T05:06:53.877Z,18.60
2019-04-03T05:09:21.280Z,21.40
2019-04-03T05:11:48.668Z,21.40
2019-04-03T05:14:18.029Z,23.12
2019-04-03T05:16:44.975Z,24.32
2019-04-03T05:19:17.888Z,16.57
2019-04-03T05:21:41.303Z,21.27
2019-04-03T05:24:12.845Z,24.83
2019-04-03T05:26:37.537Z,21.75
2019-04-03T05:29:05.062Z,22.27
2019-04-03T05:31:32.325Z,24.47
2019-04-03T05:33:59.687Z,25.30
2019-04-03T05:36:27.059Z,30.08
2019-04-03T05:38:54.456Z,25.97
2019-04-03T05:41:21.824Z,34.13
2019-04-03T05:43:49.143Z,29.55
2019-04-03T05:46:19.056Z,37.00
2019-04-03T05:48:47.526Z,33.58
2019-04-03T05:51:14.294Z,36.58
2019-04-03T05:53:41.649Z,34.65
2019-04-03T05:56:11.640Z,37.53
2019-04-03T05:58:37.891Z,38.53
2019-04-03T06:01:07.396Z,40.35
2019-04-03T06:03:41.984Z,39.43
2019-04-03T06:06:05.063Z,34.67
2019-04-03T06:08:34.534Z,40.55
2019-04-03T06:11:03.483Z,35.55
2019-04-03T06:13:31.067Z,35.23
2019-04-03T06:15:58.315Z,34.60
2019-04-03T06:18:26.524Z,32.25
2019-04-03T06:20:54.212Z,33.28
2019-04-03T06:23:23.119Z,35.25
2019-04-03T06:25:50.312Z,38.02
2019-04-03T06:28:17.552Z,36.60
2019-04-03T06:30:44.975Z,33.75
2019-04-03T06:33:12.827Z,43.45
2019-04-03T06:35:40.051Z,43.40
2019-04-03T06:38:07.354Z,43.87
2019-04-03T06:40:35.966Z,41.83
2019-04-03T06:43:03.548Z,37.10
2019-04-03T06:45:30.937Z,36.77
2019-04-03T06:47:58.237Z,40.00
2019-04-03T06:50:25.778Z,35.05
2019-04-03T06:52:53.631Z,36.70
2019-04-03T06:55:20.985Z,30.72
2019-04-03T06:57:48.441Z,34.75
2019-04-03T07:00:15.966Z,35.52
2019-04-03T07:02:43.164Z,34.92
2019-04-03T07:05:11.033Z,35.40
2019-04-03T07:07:38.777Z,28.42
2019-04-03T07:10:08.436Z,35.40
2019-04-03T07:12:35.240Z,35.43
2019-04-03T07:15:02.569Z,31.55
2019-04-03T07:17:31.524Z,35.97
2019-04-03T07:20:12.040Z,34.20
2019-04-03T07:22:28.300Z,35.33
2019-04-03T07:24:55.615Z,32.20
2019-04-03T07:27:22.869Z,32.48
2019-04-03T07:29:50.373Z,33.08
2019-04-03T07:32:17.780Z,33.60
2019-04-03T07:34:45.037Z,32.03
2019-04-03T07:37:15.221Z,32.30
2019-04-03T07:39:41.246Z,31.93
2019-04-03T07:42:08.466Z,33.65
2019-04-03T07:44:35.768Z,31.90
2019-04-03T07:47:04.013Z,30.40
2019-04-03T07:49:31.983Z,27.30
2019-04-03T07:51:59.403Z,30.00
2019-04-03T07:54:27.061Z,27.77
2019-04-03T07:56:57.012Z,24.77
2019-04-03T07:59:23.724Z,20.97
2019-04-03T08:01:52.780Z,20.23
2019-04-03T08:04:20.265Z,19.67
2019-04-03T08:06:49.136Z,19.00
2019-04-03T08:09:16.651Z,19.40
2019-04-03T08:11:44.327Z,19.45
2019-04-03T08:14:11.778Z,21.10
2019-04-03T08:16:41.961Z,19.67
2019-04-03T08:19:08.770Z,15.28
2019-04-03T08:21:36.435Z,19.10
2019-04-03T08:24:07.594Z,19.60
2019-04-03T08:26:34.735Z,19.98
2019-04-03T08:29:02.476Z,20.08
2019-04-03T08:31:30.044Z,23.37
2019-04-03T08:33:59.538Z,19.20
2019-04-03T08:36:26.798Z,20.97
2019-04-03T08:38:54.479Z,21.15
2019-04-03T08:41:23.526Z,22.42
2019-04-03T08:43:50.720Z,23.57
2019-04-03T08:46:17.899Z,23.80
2019-04-03T08:48:45.291Z,22.62
2019-04-03T08:51:12.661Z,21.80
2019-04-03T08:53:40.160Z,23.30
2019-04-03T08:56:07.816Z,23.95
2019-04-03T08:58:35.214Z,22.73
2019-04-03T09:01:04.787Z,24.30
2019-04-03T09:03:31.521Z,21.02
2019-04-03T09:06:00.383Z,22.22
2019-04-03T09:08:27.579Z,20.52
2019-04-03T09:10:54.816Z,21.85
2019-04-03T09:13:23.737Z,20.57
2019-04-03T09:15:52.763Z,21.50
2019-04-03T09:18:20.211Z,19.47
2019-04-03T09:20:47.666Z,17.85
2019-04-03T09:23:17.024Z,16.65
2019-04-03T09:25:44.494Z,17.70
2019-04-03T09:28:11.899Z,17.27
2019-04-03T09:30:39.338Z,18.57
2019-04-03T09:33:06.688Z,20.35
2019-04-03T09:35:33.892Z,19.73
2019-04-03T09:38:01.172Z,17.55
2019-04-03T09:40:28.509Z,17.10
2019-04-03T09:42:55.845Z,15.10
2019-04-03T09:45:23.082Z,15.10
2019-04-03T09:47:50.476Z,18.45
2019-04-03T09:50:17.801Z,17.23
2019-04-03T09:52:49.389Z,16.73
2019-04-03T09:55:15.735Z,18.45
2019-04-03T09:57:43.304Z,17.95
2019-04-03T10:00:11.440Z,18.50
2019-04-03T10:02:39.300Z,16.25
2019-04-03T10:05:07.484Z,18.37
2019-04-03T10:07:36.337Z,18.80
2019-04-03T10:10:07.554Z,19.40
2019-04-03T10:12:34.984Z,17.00
2019-04-03T10:15:02.647Z,17.50
2019-04-03T10:17:31.216Z,17.00
2019-04-03T10:19:58.704Z,19.40
2019-04-03T10:22:26.316Z,17.00
2019-04-03T10:24:53.684Z,17.20
2019-04-03T10:27:20.897Z,16.97
2019-04-03T10:29:50.264Z,16.27
2019-04-03T10:32:17.215Z,13.58
2019-04-03T10:34:44.628Z,21.15
2019-04-03T10:37:14.423Z,14.73
2019-04-03T10:39:44.242Z,15.67
2019-04-03T10:42:10.252Z,14.93
2019-04-03T10:44:37.755Z,14.45
2019-04-03T10:47:05.200Z,19.17
2019-04-03T10:49:32.872Z,12.73
2019-04-03T10:52:00.252Z,13.03
2019-04-03T10:54:27.555Z,15.03
2019-04-03T10:56:54.774Z,15.05
2019-04-03T10:59:22.101Z,17.52
2019-04-03T11:01:49.340Z,15.30
2019-04-03T11:04:16.642Z,16.80
2019-04-03T11:06:43.971Z,11.78
2019-04-03T11:09:11.279Z,14.63
2019-04-03T11:11:38.637Z,14.58
2019-04-03T11:14:07.807Z,12.35
2019-04-03T11:16:37.267Z,11.53
2019-04-03T11:19:06.616Z,13.00
2019-04-03T11:21:33.578Z,13.50
2019-04-03T11:24:01.244Z,11.28
2019-04-03T11:26:28.868Z,10.93
2019-04-03T11:28:56.158Z,13.83
2019-04-03T11:31:27.098Z,10.20
2019-04-03T11:33:52.442Z,9.40
2019-04-03T11:36:19.764Z,10.65
2019-04-03T11:38:47.029Z,11.88
2019-04-03T11:41:18.631Z,13.32
2019-04-03T11:43:43.374Z,10.87
2019-04-03T11:46:10.716Z,12.47
2019-04-03T11:48:38.060Z,12.35
2019-04-03T11:51:05.398Z,9.73
2019-04-03T11:53:33.044Z,13.72
2019-04-03T11:56:01.672Z,9.25
2019-04-03T11:58:28.966Z,12.10
2019-04-03T12:00:56.527Z,9.78
2019-04-03T12:03:24.159Z,9.90
2019-04-03T12:05:51.664Z,9.53
2019-04-03T12:08:18.864Z,9.00
2019-04-03T12:10:46.185Z,12.37
2019-04-03T12:13:14.374Z,12.82
2019-04-03T12:15:42.729Z,10.20
2019-04-03T12:18:10.013Z,10.82
2019-04-03T12:20:41.251Z,11.50
2019-04-03T12:23:07.652Z,8.77
2019-04-03T12:25:38.001Z,8.85
2019-04-03T12:28:06.692Z,10.65
2019-04-03T12:30:32.899Z,9.30
2019-04-03T12:33:00.089Z,10.60
2019-04-03T12:35:27.648Z,12.33
2019-04-03T12:37:55.106Z,11.30
2019-04-03T12:40:22.570Z,10.45
2019-04-03T12:42:50.093Z,11.18
2019-04-03T12:45:18.622Z,9.68
2019-04-03T12:47:46.067Z,11.57
2019-04-03T12:50:13.560Z,11.48
2019-04-03T12:52:44.006Z,10.95
2019-04-03T12:55:10.766Z,10.30
2019-04-03T12:57:56.258Z,10.50
2019-04-03T13:00:23.575Z,11.22
2019-04-03T13:02:53.553Z,10.38
2019-04-03T13:05:20.795Z,9.58
2019-04-03T13:07:48.126Z,8.47
2019-04-03T13:10:15.496Z,8.63
2019-04-03T13:12:42.748Z,7.83
2019-04-03T13:15:10.366Z,6.97
2019-04-03T13:17:38.240Z,8.63
2019-04-03T13:20:06.453Z,8.45
2019-04-03T13:22:34.347Z,9.83
2019-04-03T13:25:01.875Z,7.83
2019-04-03T13:27:31.775Z,7.62
2019-04-03T13:29:59.171Z,6.50
2019-04-03T13:32:26.822Z,9.28
2019-04-03T13:34:54.540Z,7.40
2019-04-03T13:37:23.250Z,6.33
2019-04-03T13:39:50.786Z,7.78
2019-04-03T13:42:17.953Z,6.50
2019-04-03T13:44:45.337Z,6.45
2019-04-03T13:47:12.796Z,6.30
2019-04-03T13:49:40.063Z,7.57
2019-04-03T13:52:09.654Z,6.75
2019-04-03T13:54:37.217Z,7.75
2019-04-03T13:57:04.575Z,5.47
2019-04-03T13:59:31.870Z,4.67
2019-04-03T14:01:59.534Z,3.30
2019-04-03T14:04:27.181Z,2.27
2019-04-03T14:06:54.480Z,2.15
2019-04-03T14:09:21.938Z,2.20
2019-04-03T14:11:49.241Z,2.00
2019-04-03T14:14:16.724Z,2.75
2019-04-03T14:16:44.384Z,3.40
2019-04-03T14:19:13.305Z,2.00
2019-04-03T14:21:40.782Z,2.98
2019-04-03T14:24:09.105Z,2.43
2019-04-03T14:26:37.587Z,4.53
2019-04-03T14:29:08.862Z,2.90
2019-04-03T14:31:37.667Z,2.65
2019-04-03T14:34:05.176Z,2.42
2019-04-03T14:36:32.466Z,2.40
2019-04-03T14:39:02.403Z,2.47
2019-04-03T14:41:28.904Z,3.50
2019-04-03T14:43:56.383Z,3.15
2019-04-03T14:46:23.860Z,3.00
2019-04-03T14:48:52.836Z,2.62
2019-04-03T14:51:20.446Z,2.52
2019-04-03T14:53:48.229Z,4.05
2019-04-03T14:56:15.571Z,3.70
2019-04-03T14:58:44.486Z,2.92
2019-04-03T15:01:11.874Z,3.47
2019-04-03T15:03:39.205Z,3.42
2019-04-03T15:06:06.890Z,3.45
2019-04-03T15:08:34.636Z,3.00
2019-04-03T15:11:03.005Z,3.00
2019-04-03T15:13:30.872Z,3.05
2019-04-03T15:15:59.895Z,3.40
2019-04-03T15:18:28.090Z,4.15
2019-04-03T15:20:55.582Z,3.30
2019-04-03T15:23:23.051Z,4.78
2019-04-03T15:25:52.162Z,4.10
2019-04-03T15:28:19.737Z,3.90
2019-04-03T15:30:47.250Z,3.35
2019-04-03T15:33:14.878Z,5.65
2019-04-03T15:35:42.498Z,4.45
2019-04-03T15:38:13.405Z,4.10
2019-04-03T15:40:41.273Z,4.12
2019-04-03T15:43:11.938Z,4.40
2019-04-03T15:45:38.175Z,4.80
2019-04-03T15:48:05.858Z,4.72
2019-04-03T15:50:36.317Z,4.37
2019-04-03T15:53:02.394Z,7.23
2019-04-03T15:55:29.720Z,6.30
2019-04-03T15:57:57.142Z,5.75
2019-04-03T16:00:25.093Z,5.37
2019-04-03T16:02:52.412Z,5.78
2019-04-03T16:05:20.146Z,5.35
2019-04-03T16:07:47.573Z,5.12
2019-04-03T16:10:16.213Z,5.35
2019-04-03T16:12:44.134Z,4.90
2019-04-03T16:15:11.750Z,4.75
2019-04-03T16:17:39.675Z,5.93
2019-04-03T16:20:07.379Z,5.28
2019-04-03T16:22:36.914Z,4.80
2019-04-03T16:25:05.063Z,4.70
2019-04-03T16:27:32.368Z,5.53
2019-04-03T16:29:59.649Z,4.65
2019-04-03T16:32:27.728Z,8.10
2019-04-03T16:34:55.547Z,5.55
2019-04-03T16:37:23.338Z,5.05
2019-04-03T16:39:50.756Z,4.60
2019-04-03T16:42:18.011Z,5.10
2019-04-03T16:44:45.843Z,6.42
2019-04-03T16:47:14.401Z,4.60
2019-04-03T16:49:41.831Z,4.83
2019-04-03T16:52:09.325Z,7.03
2019-04-03T16:54:37.096Z,5.28
2019-04-03T16:57:07.136Z,6.75
2019-04-03T16:59:36.156Z,6.58
2019-04-03T17:02:03.517Z,5.05
2019-04-03T17:04:31.104Z,5.17
2019-04-03T17:06:58.541Z,5.33
2019-04-03T17:09:26.630Z,5.37
2019-04-03T17:11:53.854Z,5.33
2019-04-03T17:14:23.309Z,5.85
2019-04-03T17:16:50.571Z,6.70
2019-04-03T17:19:18.836Z,5.50
2019-04-03T17:21:46.248Z,6.00
2019-04-03T17:24:13.584Z,9.18
2019-04-03T17:26:49.856Z,8.08
2019-04-03T17:29:13.951Z,7.72
2019-04-03T17:31:41.782Z,5.47
2019-04-03T17:34:11.030Z,6.15
2019-04-03T17:36:38.338Z,6.87
2019-04-03T17:39:06.986Z,6.03
2019-04-03T17:41:34.271Z,5.67
2019-04-03T17:44:01.544Z,5.75
2019-04-03T17:46:28.946Z,4.87
2019-04-03T17:48:56.257Z,6.25
2019-04-03T17:51:23.506Z,6.92
2019-04-03T17:53:50.899Z,6.07
2019-04-03T17:56:18.194Z,6.00
2019-04-03T17:58:47.631Z,7.35
2019-04-03T18:01:14.344Z,6.10
2019-04-03T18:03:41.521Z,6.47
2019-04-03T18:06:08.712Z,7.30
2019-04-03T18:08:35.958Z,6.10
2019-04-03T18:11:03.216Z,6.53
2019-04-03T18:13:30.417Z,6.10
2019-04-03T18:15:58.915Z,6.08
2019-04-03T18:18:29.040Z,6.87
2019-04-03T18:20:56.436Z,5.97
2019-04-03T18:23:23.630Z,5.80
2019-04-03T18:25:50.913Z,4.08
2019-04-03T18:28:20.856Z,3.87
2019-04-03T18:30:47.147Z,3.53
2019-04-03T18:33:17.162Z,3.20
2019-04-03T18:35:44.860Z,4.12
2019-04-03T18:38:12.077Z,6.50
2019-04-03T18:40:39.339Z,6.25
2019-04-03T18:43:06.791Z,5.15
2019-04-03T18:45:35.129Z,4.83
2019-04-03T18:48:02.408Z,4.58
2019-04-03T18:50:29.945Z,5.47
2019-04-03T18:52:57.309Z,6.60
2019-04-03T18:55:24.629Z,5.90
2019-04-03T18:57:51.852Z,7.65
2019-04-03T19:00:19.145Z,5.25
2019-04-03T19:02:46.725Z,6.53
2019-04-03T19:05:14.429Z,6.70
2019-04-03T19:07:41.712Z,7.55
2019-04-03T19:10:08.990Z,7.40
2019-04-03T19:12:36.351Z,7.80
2019-04-03T19:15:04.151Z,7.62
2019-04-03T19:17:31.462Z,6.70
2019-04-03T19:20:09.655Z,6.03
2019-04-03T19:22:28.038Z,6.90
2019-04-03T19:24:55.244Z,6.80
2019-04-03T19:27:22.455Z,7.45
2019-04-03T19:29:49.753Z,7.70
2019-04-03T19:32:17.035Z,8.55
2019-04-03T19:34:44.344Z,8.17
2019-04-03T19:37:11.605Z,8.23
2019-04-03T19:39:39.160Z,8.58
2019-04-03T19:42:06.831Z,8.80
2019-04-03T19:44:34.298Z,8.33
2019-04-03T19:47:01.794Z,9.18
2019-04-03T19:49:29.105Z,8.40
2019-04-03T19:51:56.383Z,8.90
2019-04-03T19:54:23.805Z,8.98
2019-04-03T19:56:51.027Z,9.48
2019-04-03T19:59:18.273Z,10.23
2019-04-03T20:01:45.485Z,11.40
2019-04-03T20:04:15.671Z,11.28
2019-04-03T20:06:43.734Z,10.90
2019-04-03T20:09:11.061Z,12.45
2019-04-03T20:11:38.386Z,12.20
2019-04-03T20:14:05.601Z,11.95
2019-04-03T20:16:32.962Z,12.73
2019-04-03T20:19:04.796Z,13.90
2019-04-03T20:21:32.234Z,14.68
2019-04-03T20:24:02.093Z,15.48
2019-04-03T20:26:33.081Z,16.82
2019-04-03T20:29:04.382Z,17.80
2019-04-03T20:31:31.665Z,18.45
2019-04-03T20:33:59.001Z,20.05
2019-04-03T20:36:26.272Z,22.77
2019-04-03T20:38:53.569Z,23.38
2019-04-03T20:41:20.922Z,23.83
2019-04-03T20:43:48.129Z,28.10
2019-04-03T20:46:15.527Z,36.25
2019-04-03T20:48:42.867Z,34.45
2019-04-03T20:51:10.078Z,40.75
2019-04-03T20:53:37.349Z,44.88
2019-04-03T20:56:05.243Z,37.65
2019-04-03T20:58:32.437Z,35.80
2019-04-03T21:01:06.897Z,37.75
2019-04-03T21:03:28.740Z,41.95
2019-04-03T21:05:55.983Z,44.70
2019-04-03T21:08:26.324Z,37.97
2019-04-03T21:10:52.316Z,37.95
2019-04-03T21:13:19.518Z,43.13
2019-04-03T21:15:46.718Z,41.85
2019-04-03T21:18:14.245Z,42.57
2019-04-03T21:20:41.463Z,43.20
2019-04-03T21:23:08.667Z,38.38
2019-04-03T21:25:36.573Z,39.15
2019-04-03T21:28:04.052Z,35.98
2019-04-03T21:30:31.259Z,29.25
2019-04-03T21:33:00.510Z,24.80
2019-04-03T21:35:27.885Z,19.70
2019-04-03T21:37:55.162Z,16.50
2019-04-03T21:40:22.454Z,14.00
2019-04-03T21:42:49.683Z,15.45
2019-04-03T21:45:17.066Z,17.45
2019-04-03T21:47:44.357Z,17.85
2019-04-03T21:50:11.646Z,17.77
2019-04-03T21:52:38.899Z,16.20
2019-04-03T21:55:06.631Z,15.25
2019-04-03T21:57:33.912Z,14.93
2019-04-03T22:00:01.148Z,14.13
2019-04-03T22:02:28.491Z,11.70
2019-04-03T22:04:56.962Z,12.20
2019-04-03T22:07:24.213Z,12.47
2019-04-03T22:09:51.434Z,13.53
2019-04-03T22:12:18.718Z,12.00
2019-04-03T22:14:46.042Z,12.13
2019-04-03T22:17:13.247Z,13.18
2019-04-03T22:19:40.577Z,13.60
2019-04-03T22:22:07.878Z,15.53
2019-04-03T22:24:37.430Z,15.03
2019-04-03T22:27:04.191Z,13.18
2019-04-03T22:29:31.406Z,13.22
2019-04-03T22:31:58.619Z,11.80
2019-04-03T22:34:25.949Z,11.63
2019-04-03T22:36:53.212Z,11.17
2019-04-03T22:39:20.416Z,11.10
2019-04-03T22:41:47.790Z,11.75
2019-04-03T22:44:16.890Z,12.40
2019-04-03T22:46:43.941Z,11.20
2019-04-03T22:49:11.363Z,10.88
2019-04-03T22:51:38.604Z,11.22
2019-04-03T22:54:05.795Z,11.33
2019-04-03T22:56:33.031Z,10.50
2019-04-03T22:59:00.218Z,11.83
2019-04-03T23:01:29.577Z,12.60
2019-04-03T23:03:56.407Z,13.75
2019-04-03T23:06:23.618Z,13.45
2019-04-03T23:08:51.858Z,11.73
2019-04-03T23:11:19.890Z,15.95
2019-04-03T23:13:47.098Z,15.78
2019-04-03T23:16:14.385Z,16.67
2019-04-03T23:18:41.603Z,15.18
2019-04-03T23:21:08.786Z,15.65
2019-04-03T23:23:36.003Z,16.05
2019-04-03T23:26:03.571Z,15.90
2019-04-03T23:28:33.596Z,16.95
2019-04-03T23:30:59.741Z,17.82
2019-04-03T23:33:27.071Z,15.95
2019-04-03T23:35:54.264Z,16.67
2019-04-03T23:38:21.460Z,17.57
2019-04-03T23:40:48.697Z,17.87
2019-04-03T23:43:15.887Z,17.77
2019-04-03T23:45:43.781Z,17.87
2019-04-03T23:48:11.572Z,18.63
2019-04-03T23:50:38.753Z,17.20
2019-04-03T23:53:06.847Z,18.42
2019-04-03T23:55:34.347Z,18.48
2019-04-03T23:58:03.087Z,18.32
